Time;durP1;ratioP1;P1;durP2;ratioP2;P2;SDS_P1;SDS_P2;PMS_P1;PMS_P2;Temp;Humidity;BMP_temperature;BMP_pressure;BME280_temperature;BME280_humidity;BME280_pressure;Samples;Min_cycle;Max_cycle;Signal;HPM_P1;HPM_P2
2021/04/30 00:01:50;;;;;;;36.17;30.60;;;;;;;;;;5134353;27;20177;-74
2021/04/30 00:04:16;;;;;;;37.93;30.37;;;;;;;;;;5134693;27;20196;-72
2021/04/30 00:06:42;;;;;;;37.50;31.02;;;;;;;;;;5134721;27;20422;-74
2021/04/30 00:09:08;;;;;;;40.60;30.88;;;;;;;;;;5120477;27;20193;-74
2021/04/30 00:11:34;;;;;;;38.00;30.75;;;;;;;;;;5134824;27;20174;-74
2021/04/30 00:14:00;;;;;;;41.00;32.25;;;;;;;;;;5128345;27;20651;-74
2021/04/30 00:16:26;;;;;;;37.70;31.90;;;;;;;;;;5126435;27;20201;-73
2021/04/30 00:18:52;;;;;;;37.08;31.15;;;;;;;;;;5134553;27;20404;-72
2021/04/30 00:21:18;;;;;;;42.47;33.28;;;;;;;;;;5134327;27;20178;-73
2021/04/30 00:23:45;;;;;;;42.00;33.10;;;;;;;;;;5134308;27;20176;-73
2021/04/30 00:26:11;;;;;;;43.47;32.00;;;;;;;;;;5133126;27;20455;-73
2021/04/30 00:28:37;;;;;;;35.80;30.65;;;;;;;;;;5124628;27;20201;-74
2021/04/30 00:31:03;;;;;;;36.97;32.20;;;;;;;;;;5126831;27;20271;-73
2021/04/30 00:33:29;;;;;;;39.90;32.67;;;;;;;;;;5119913;27;20420;-74
2021/04/30 00:35:55;;;;;;;40.08;33.25;;;;;;;;;;5113926;28;20179;-73
2021/04/30 00:38:22;;;;;;;38.60;32.53;;;;;;;;;;5113897;28;20198;-73
2021/04/30 00:40:48;;;;;;;38.67;32.53;;;;;;;;;;5114031;28;20206;-73
2021/04/30 00:43:15;;;;;;;39.97;32.83;;;;;;;;;;5113501;28;20179;-73
2021/04/30 00:45:41;;;;;;;38.47;33.30;;;;;;;;;;5113588;28;20558;-74
2021/04/30 00:48:11;;;;;;;41.53;34.35;;;;;;;;;;5113392;28;20202;-73
2021/04/30 00:50:37;;;;;;;38.80;32.92;;;;;;;;;;5113717;28;20171;-73
2021/04/30 00:53:03;;;;;;;41.63;34.60;;;;;;;;;;5113442;28;21305;-73
2021/04/30 00:55:29;;;;;;;41.58;34.17;;;;;;;;;;5113497;28;20662;-74
2021/04/30 00:57:57;;;;;;;43.28;34.55;;;;;;;;;;5113051;28;20204;-73
2021/04/30 01:00:24;;;;;;;39.30;34.20;;;;;;;;;;5113508;28;20197;-74
2021/04/30 01:02:50;;;;;;;42.38;34.95;;;;;;;;;;5113447;28;20577;-71
2021/04/30 01:05:16;;;;;;;41.13;33.92;;;;;;;;;;5113315;28;20542;-73
2021/04/30 01:07:43;;;;;;;42.30;33.97;;;;;;;;;;5113101;28;20194;-74
2021/04/30 01:10:09;;;;;;;43.22;34.63;;;;;;;;;;5113666;28;20174;-73
2021/04/30 01:12:35;;;;;;;38.28;33.50;;;;;;;;;;5114409;28;20185;-73
2021/04/30 01:15:01;;;;;;;39.45;33.38;;;;;;;;;;5125505;27;20557;-73
2021/04/30 01:17:28;;;;;;;40.40;33.80;;;;;;;;;;5117026;28;20210;-73
2021/04/30 01:19:55;;;;;;;41.08;34.85;;;;;;;;;;5117377;28;20178;-73
2021/04/30 01:22:40;;;;;;;39.70;32.60;;;;;;;;;;5116922;28;20187;-73
2021/04/30 01:25:08;;;;;;;41.42;33.95;;;;;;;;;;5117181;28;20671;-74
2021/04/30 01:27:34;;;;;;;42.55;35.85;;;;;;;;;;5117100;28;20198;-73
2021/04/30 01:30:00;;;;;;;40.78;33.50;;;;;;;;;;5117279;28;20233;-76
2021/04/30 01:32:26;;;;;;;43.10;34.70;;;;;;;;;;5105849;28;20723;-73
2021/04/30 01:34:52;;;;;;;42.58;34.35;;;;;;;;;;5117038;28;20739;-73
2021/04/30 01:37:19;;;;;;;41.40;34.88;;;;;;;;;;5117163;28;20191;-74
2021/04/30 01:39:45;;;;;;;40.45;33.80;;;;;;;;;;5116936;28;20202;-73
2021/04/30 01:42:11;;;;;;;40.88;34.33;;;;;;;;;;5116956;27;20178;-73
2021/04/30 01:44:37;;;;;;;40.53;33.63;;;;;;;;;;5116676;27;20202;-73
2021/04/30 01:47:03;;;;;;;39.05;34.05;;;;;;;;;;5117016;28;20209;-73
2021/04/30 01:49:29;;;;;;;42.10;34.10;;;;;;;;;;5116603;28;20231;-73
2021/04/30 01:51:56;;;;;;;41.95;33.30;;;;;;;;;;5116843;28;20197;-74
2021/04/30 01:54:22;;;;;;;38.05;33.83;;;;;;;;;;5113639;28;20227;-73
2021/04/30 01:56:48;;;;;;;42.55;34.33;;;;;;;;;;5112805;28;20179;-74
2021/04/30 01:59:14;;;;;;;44.47;34.10;;;;;;;;;;5110911;28;20177;-73
2021/04/30 02:01:40;;;;;;;39.80;34.10;;;;;;;;;;5112071;28;20420;-73
2021/04/30 02:04:08;;;;;;;41.30;34.93;;;;;;;;;;5105158;28;20182;-73
2021/04/30 02:06:38;;;;;;;44.75;34.90;;;;;;;;;;5108040;28;20430;-73
2021/04/30 02:09:04;;;;;;;40.58;34.80;;;;;;;;;;5113890;28;20222;-71
2021/04/30 02:11:30;;;;;;;41.85;34.08;;;;;;;;;;5115385;28;20249;-72
2021/04/30 02:13:56;;;;;;;40.90;33.47;;;;;;;;;;5113894;28;20595;-73
2021/04/30 02:16:22;;;;;;;41.07;33.93;;;;;;;;;;5115040;28;20391;-73
2021/04/30 02:18:48;;;;;;;37.73;30.87;;;;;;;;;;5111914;28;20446;-73
2021/04/30 02:21:14;;;;;;;37.55;31.98;;;;;;;;;;5113630;28;20395;-72
2021/04/30 02:23:39;;;;;;;38.83;33.70;;;;;;;;;;5112337;28;20527;-74
2021/04/30 02:26:06;;;;;;;36.87;32.27;;;;;;;;;;5108777;28;20555;-73
2021/04/30 02:28:32;;;;;;;39.67;32.38;;;;;;;;;;5114142;28;20399;-73
2021/04/30 02:30:58;;;;;;;37.90;32.65;;;;;;;;;;5114977;28;20185;-73
2021/04/30 02:33:24;;;;;;;41.45;33.60;;;;;;;;;;5109221;28;20191;-74
2021/04/30 02:35:50;;;;;;;40.53;33.03;;;;;;;;;;5113981;28;20179;-74
2021/04/30 02:38:18;;;;;;;40.75;33.60;;;;;;;;;;5114341;28;20206;-72
2021/04/30 02:40:44;;;;;;;38.28;31.80;;;;;;;;;;5114780;28;20183;-73
2021/04/30 02:43:12;;;;;;;38.45;31.67;;;;;;;;;;5112066;28;20175;-74
2021/04/30 02:45:38;;;;;;;41.05;33.65;;;;;;;;;;5107703;28;20207;-74
2021/04/30 02:48:22;;;;;;;36.70;32.55;;;;;;;;;;5104379;28;20273;-74
2021/04/30 02:50:48;;;;;;;36.58;31.27;;;;;;;;;;5112852;28;20266;-73
2021/04/30 02:53:14;;;;;;;36.13;30.45;;;;;;;;;;5110026;28;20182;-74
2021/04/30 02:55:40;;;;;;;38.70;31.47;;;;;;;;;;5099752;28;20180;-73
2021/04/30 02:58:07;;;;;;;37.80;31.50;;;;;;;;;;5113966;28;20418;-74
2021/04/30 03:00:33;;;;;;;36.28;30.00;;;;;;;;;;5112688;28;20400;-74
2021/04/30 03:03:00;;;;;;;33.58;29.92;;;;;;;;;;5114194;28;20174;-75
2021/04/30 03:05:26;;;;;;;35.70;30.50;;;;;;;;;;5094137;28;577523;-75
2021/04/30 03:07:53;;;;;;;37.85;31.02;;;;;;;;;;5112675;28;20222;-73
2021/04/30 03:10:19;;;;;;;38.65;32.30;;;;;;;;;;5113608;28;20178;-74
2021/04/30 03:12:46;;;;;;;36.63;31.90;;;;;;;;;;5116323;27;20305;-73
2021/04/30 03:15:14;;;;;;;36.85;31.50;;;;;;;;;;5120870;27;20386;-72
2021/04/30 03:17:40;;;;;;;38.03;31.85;;;;;;;;;;5114570;28;20206;-74
2021/04/30 03:20:07;;;;;;;38.35;31.70;;;;;;;;;;5113623;28;20246;-73
2021/04/30 03:22:33;;;;;;;38.78;32.22;;;;;;;;;;5111789;27;20179;-74
2021/04/30 03:24:59;;;;;;;35.37;31.57;;;;;;;;;;5106600;28;20286;-74
2021/04/30 03:27:26;;;;;;;37.42;31.20;;;;;;;;;;5114153;28;20825;-74
2021/04/30 03:29:52;;;;;;;40.35;32.78;;;;;;;;;;5115044;28;20182;-72
2021/04/30 03:32:19;;;;;;;41.35;30.13;;;;;;;;;;5114908;28;20174;-73
2021/04/30 03:34:44;;;;;;;35.45;27.92;;;;;;;;;;5113762;28;20232;-74
2021/04/30 03:37:10;;;;;;;32.87;27.60;;;;;;;;;;5107289;28;20211;-74
2021/04/30 03:39:36;;;;;;;34.60;29.53;;;;;;;;;;5114752;28;20423;-73
2021/04/30 03:42:02;;;;;;;31.80;26.67;;;;;;;;;;5106147;28;20409;-76
2021/04/30 03:44:28;;;;;;;31.67;28.23;;;;;;;;;;5104184;28;20424;-74
2021/04/30 03:46:54;;;;;;;31.88;27.40;;;;;;;;;;5110550;27;20823;-74
2021/04/30 03:49:20;;;;;;;28.25;24.92;;;;;;;;;;5109153;28;20182;-74
2021/04/30 03:51:47;;;;;;;29.03;25.83;;;;;;;;;;5112688;28;20596;-73
2021/04/30 03:54:13;;;;;;;30.05;26.70;;;;;;;;;;5097386;28;20428;-73
2021/04/30 03:56:39;;;;;;;28.83;25.80;;;;;;;;;;5114411;28;20209;-73
2021/04/30 03:59:05;;;;;;;26.73;23.93;;;;;;;;;;5111407;28;20199;-74
2021/04/30 04:01:31;;;;;;;30.75;27.45;;;;;;;;;;5111268;28;20487;-74
2021/04/30 04:03:56;;;;;;;30.77;27.60;;;;;;;;;;5114075;28;20389;-74
2021/04/30 04:06:22;;;;;;;34.47;27.33;;;;;;;;;;5112349;28;20461;-74
2021/04/30 04:08:48;;;;;;;30.90;27.73;;;;;;;;;;5106332;28;20457;-74
2021/04/30 04:11:14;;;;;;;31.23;27.93;;;;;;;;;;5114043;28;20510;-74
2021/04/30 04:13:40;;;;;;;34.13;30.53;;;;;;;;;;5119946;27;20827;-73
2021/04/30 04:16:06;;;;;;;31.85;28.48;;;;;;;;;;5114195;28;20761;-74
2021/04/30 04:18:32;;;;;;;31.57;28.17;;;;;;;;;;5112144;28;20194;-73
2021/04/30 04:20:58;;;;;;;35.47;30.38;;;;;;;;;;5112449;28;20436;-74
2021/04/30 04:23:24;;;;;;;34.38;28.90;;;;;;;;;;5111811;28;20186;-72
2021/04/30 04:25:50;;;;;;;35.42;30.10;;;;;;;;;;5114016;28;20202;-73
2021/04/30 04:28:16;;;;;;;35.95;32.05;;;;;;;;;;5113469;28;20248;-74
2021/04/30 04:30:42;;;;;;;35.28;30.92;;;;;;;;;;5113678;28;20255;-74
2021/04/30 04:33:09;;;;;;;33.45;29.80;;;;;;;;;;5113170;28;20279;-74
2021/04/30 04:35:35;;;;;;;35.17;30.13;;;;;;;;;;5113194;28;20512;-72
2021/04/30 04:38:01;;;;;;;33.88;29.27;;;;;;;;;;5110303;28;20227;-73
2021/04/30 04:40:27;;;;;;;34.87;31.13;;;;;;;;;;5105474;28;20576;-74
2021/04/30 04:42:53;;;;;;;37.60;31.60;;;;;;;;;;5113240;28;20412;-74
2021/04/30 04:45:20;;;;;;;35.20;31.40;;;;;;;;;;5113093;28;20183;-73
2021/04/30 04:47:46;;;;;;;35.78;28.73;;;;;;;;;;5112290;28;20190;-71
2021/04/30 04:50:13;;;;;;;34.50;30.90;;;;;;;;;;5110510;28;20623;-72
2021/04/30 04:52:40;;;;;;;34.92;30.25;;;;;;;;;;5111584;28;20528;-72
2021/04/30 04:55:07;;;;;;;34.45;30.83;;;;;;;;;;5113173;28;20178;-73
2021/04/30 04:57:33;;;;;;;34.35;30.13;;;;;;;;;;5112571;28;20190;-74
2021/04/30 04:59:59;;;;;;;36.10;31.05;;;;;;;;;;5113681;28;20185;-74
2021/04/30 05:02:25;;;;;;;36.47;32.65;;;;;;;;;;5106028;28;20171;-74
2021/04/30 05:04:51;;;;;;;35.23;30.60;;;;;;;;;;5112792;28;20547;-73
2021/04/30 05:07:19;;;;;;;36.38;31.88;;;;;;;;;;5104542;28;20437;-73
2021/04/30 05:09:44;;;;;;;35.30;30.77;;;;;;;;;;5112489;28;20631;-72
2021/04/30 05:12:10;;;;;;;36.00;31.93;;;;;;;;;;5113509;28;20177;-73
2021/04/30 05:14:36;;;;;;;35.40;31.60;;;;;;;;;;5121591;28;20437;-73
2021/04/30 05:17:02;;;;;;;35.03;30.83;;;;;;;;;;5111669;28;20445;-73
2021/04/30 05:19:28;;;;;;;35.90;30.70;;;;;;;;;;5111897;28;20420;-73
2021/04/30 05:21:54;;;;;;;36.10;32.10;;;;;;;;;;5107106;28;20387;-74
2021/04/30 05:24:20;;;;;;;36.38;31.80;;;;;;;;;;5100994;28;20454;-74
2021/04/30 05:26:47;;;;;;;28.42;25.48;;;;;;;;;;5110937;28;20553;-72
2021/04/30 05:29:14;;;;;;;30.85;27.30;;;;;;;;;;5113063;28;20677;-73
2021/04/30 05:31:40;;;;;;;28.58;25.58;;;;;;;;;;5100848;28;20168;-73
2021/04/30 05:34:06;;;;;;;28.52;25.52;;;;;;;;;;5112850;28;20171;-74
2021/04/30 05:36:32;;;;;;;31.38;28.10;;;;;;;;;;5103494;28;20183;-76
2021/04/30 05:38:58;;;;;;;30.70;27.40;;;;;;;;;;5106988;28;20249;-73
2021/04/30 05:41:25;;;;;;;31.43;28.20;;;;;;;;;;5110702;28;20469;-73
2021/04/30 05:43:51;;;;;;;32.47;29.10;;;;;;;;;;5112750;28;20430;-73
2021/04/30 05:46:17;;;;;;;33.37;29.87;;;;;;;;;;5111259;28;20265;-74
2021/04/30 05:48:42;;;;;;;32.77;29.23;;;;;;;;;;5109737;28;20436;-73
2021/04/30 05:51:08;;;;;;;34.33;30.73;;;;;;;;;;5109289;28;20423;-73
2021/04/30 05:53:34;;;;;;;32.22;28.92;;;;;;;;;;5111206;28;20395;-74
2021/04/30 05:56:00;;;;;;;32.23;28.80;;;;;;;;;;5112806;28;20319;-74
2021/04/30 05:58:26;;;;;;;31.33;28.05;;;;;;;;;;5111034;28;20420;-74
2021/04/30 06:00:53;;;;;;;32.85;29.42;;;;;;;;;;5113060;28;20175;-73
2021/04/30 06:03:19;;;;;;;33.85;30.20;;;;;;;;;;5111341;28;20251;-73
2021/04/30 06:05:44;;;;;;;31.97;27.80;;;;;;;;;;5116058;28;20264;-74
2021/04/30 06:08:10;;;;;;;31.57;28.27;;;;;;;;;;5113409;28;20410;-73
2021/04/30 06:10:36;;;;;;;31.10;27.73;;;;;;;;;;5112791;28;20793;-73
2021/04/30 06:13:03;;;;;;;33.87;29.10;;;;;;;;;;5120314;27;20808;-73
2021/04/30 06:15:30;;;;;;;32.83;27.83;;;;;;;;;;5118402;27;20420;-73
2021/04/30 06:17:55;;;;;;;30.70;27.60;;;;;;;;;;5116006;28;20195;-73
2021/04/30 06:20:21;;;;;;;31.13;27.67;;;;;;;;;;5116196;28;20189;-73
2021/04/30 06:22:48;;;;;;;31.55;28.20;;;;;;;;;;5115902;28;20387;-75
2021/04/30 06:25:14;;;;;;;30.27;27.17;;;;;;;;;;5116038;28;20267;-74
2021/04/30 06:27:40;;;;;;;31.77;27.70;;;;;;;;;;5114759;28;20589;-74
2021/04/30 06:30:06;;;;;;;28.33;25.23;;;;;;;;;;5115609;28;20166;-74
2021/04/30 06:32:32;;;;;;;31.92;28.55;;;;;;;;;;5116155;27;20713;-73
2021/04/30 06:34:58;;;;;;;29.87;26.67;;;;;;;;;;5115295;28;20190;-74
2021/04/30 06:37:27;;;;;;;29.67;26.60;;;;;;;;;;5114523;28;20873;-74
2021/04/30 06:39:53;;;;;;;30.05;27.00;;;;;;;;;;5115731;28;20394;-73
2021/04/30 06:42:20;;;;;;;30.10;27.00;;;;;;;;;;5111756;28;20178;-75
2021/04/30 06:44:46;;;;;;;28.63;25.73;;;;;;;;;;5108166;27;20206;-73
2021/04/30 06:47:12;;;;;;;28.90;25.80;;;;;;;;;;5103346;28;20198;-73
2021/04/30 06:49:38;;;;;;;29.15;26.05;;;;;;;;;;5110054;28;20492;-73
2021/04/30 06:52:04;;;;;;;28.07;25.10;;;;;;;;;;5111980;28;20182;-74
2021/04/30 06:54:30;;;;;;;28.35;25.48;;;;;;;;;;5111600;28;20962;-73
2021/04/30 06:56:56;;;;;;;28.23;25.42;;;;;;;;;;5112088;28;20618;-73
2021/04/30 06:59:22;;;;;;;28.73;25.80;;;;;;;;;;5109534;28;20171;-73
2021/04/30 07:01:48;;;;;;;28.38;25.65;;;;;;;;;;5111933;28;20387;-74
2021/04/30 07:04:14;;;;;;;28.10;25.17;;;;;;;;;;5111069;28;20167;-74
2021/04/30 07:06:40;;;;;;;27.67;24.77;;;;;;;;;;5111503;28;20543;-74
2021/04/30 07:09:06;;;;;;;32.25;25.30;;;;;;;;;;5105033;28;20202;-73
2021/04/30 07:11:32;;;;;;;27.73;24.95;;;;;;;;;;5109496;28;20236;-77
2021/04/30 07:13:59;;;;;;;27.95;25.15;;;;;;;;;;5118918;27;20539;-74
2021/04/30 07:16:25;;;;;;;28.30;25.40;;;;;;;;;;5110945;28;20175;-74
2021/04/30 07:18:51;;;;;;;27.50;24.80;;;;;;;;;;5108397;28;20234;-74
2021/04/30 07:21:17;;;;;;;26.50;24.00;;;;;;;;;;5107346;28;20228;-74
2021/04/30 07:23:43;;;;;;;24.92;22.48;;;;;;;;;;5109903;28;20501;-75
2021/04/30 07:26:09;;;;;;;25.70;23.10;;;;;;;;;;5111049;28;20198;-72
2021/04/30 07:28:35;;;;;;;24.20;21.90;;;;;;;;;;5110061;28;20443;-73
2021/04/30 07:31:02;;;;;;;25.53;22.87;;;;;;;;;;5112054;28;20390;-74
2021/04/30 07:33:28;;;;;;;25.38;22.75;;;;;;;;;;5109089;28;20420;-73
2021/04/30 07:35:54;;;;;;;25.77;23.27;;;;;;;;;;5101826;28;20185;-73
2021/04/30 07:38:20;;;;;;;26.23;23.70;;;;;;;;;;5109834;28;20289;-74
2021/04/30 07:40:47;;;;;;;26.05;23.55;;;;;;;;;;5109140;28;20273;-73
2021/04/30 07:43:13;;;;;;;26.02;23.42;;;;;;;;;;5102187;28;20178;-73
2021/04/30 07:45:40;;;;;;;25.45;22.85;;;;;;;;;;5104222;28;20787;-75
2021/04/30 07:48:07;;;;;;;25.10;22.80;;;;;;;;;;5110679;28;20271;-73
2021/04/30 07:50:33;;;;;;;26.20;23.45;;;;;;;;;;5110091;28;20179;-74
2021/04/30 07:52:59;;;;;;;24.63;22.33;;;;;;;;;;5110471;28;20189;-73
2021/04/30 07:55:25;;;;;;;24.45;22.05;;;;;;;;;;5103530;27;20667;-74
2021/04/30 07:57:52;;;;;;;26.10;23.58;;;;;;;;;;5109517;28;20309;-73
2021/04/30 08:00:18;;;;;;;25.13;22.67;;;;;;;;;;5110033;28;20240;-75
2021/04/30 08:02:44;;;;;;;24.25;21.85;;;;;;;;;;5126177;27;20190;-74
2021/04/30 08:05:10;;;;;;;22.90;20.80;;;;;;;;;;5105375;28;20202;-74
2021/04/30 08:07:36;;;;;;;24.50;22.10;;;;;;;;;;5110267;28;20222;-73
2021/04/30 08:10:03;;;;;;;23.75;21.50;;;;;;;;;;5110563;27;20255;-73
2021/04/30 08:12:29;;;;;;;24.35;21.90;;;;;;;;;;5108964;28;20210;-73
2021/04/30 08:14:55;;;;;;;22.93;20.67;;;;;;;;;;5109036;27;20207;-74
2021/04/30 08:17:21;;;;;;;24.77;22.43;;;;;;;;;;5105830;28;20425;-73
2021/04/30 08:19:47;;;;;;;25.07;22.40;;;;;;;;;;5110136;28;20457;-74
2021/04/30 08:22:13;;;;;;;25.27;22.77;;;;;;;;;;5109410;28;20421;-73
2021/04/30 08:24:39;;;;;;;23.75;21.55;;;;;;;;;;5109607;28;20419;-74
2021/04/30 08:27:05;;;;;;;25.80;23.10;;;;;;;;;;5108748;28;20184;-73
2021/04/30 08:29:31;;;;;;;23.90;21.70;;;;;;;;;;5101501;28;20416;-73
2021/04/30 08:31:57;;;;;;;22.65;20.50;;;;;;;;;;5109793;28;20270;-74
2021/04/30 08:34:23;;;;;;;22.70;20.70;;;;;;;;;;5108743;28;20257;-74
2021/04/30 08:36:49;;;;;;;22.95;20.75;;;;;;;;;;5109408;28;20400;-74
2021/04/30 08:39:15;;;;;;;23.23;21.02;;;;;;;;;;5103107;28;20613;-73
2021/04/30 08:41:41;;;;;;;22.80;20.60;;;;;;;;;;5109519;28;20274;-74
2021/04/30 08:44:08;;;;;;;22.48;20.40;;;;;;;;;;5108087;28;20420;-73
2021/04/30 08:46:35;;;;;;;22.40;20.40;;;;;;;;;;5109430;28;20213;-74
2021/04/30 08:49:05;;;;;;;22.00;19.90;;;;;;;;;;5106081;28;20213;-74
2021/04/30 08:51:32;;;;;;;20.00;18.05;;;;;;;;;;5109599;28;20178;-74
2021/04/30 08:53:58;;;;;;;19.70;17.85;;;;;;;;;;5107114;28;20176;-73
2021/04/30 08:56:24;;;;;;;23.30;21.10;;;;;;;;;;5100684;28;20179;-72
2021/04/30 08:58:51;;;;;;;34.40;30.83;;;;;;;;;;5109335;28;20202;-74
2021/04/30 09:01:17;;;;;;;25.77;23.45;;;;;;;;;;5101659;28;20427;-73
2021/04/30 09:03:43;;;;;;;23.58;21.25;;;;;;;;;;5109580;28;20178;-72
2021/04/30 09:06:09;;;;;;;24.03;21.83;;;;;;;;;;5104497;28;20259;-74
2021/04/30 09:08:48;;;;;;;22.63;20.42;;;;;;;;;;5109078;28;20447;-74
2021/04/30 09:11:30;;;;;;;23.08;21.00;;;;;;;;;;5108061;28;20171;-74
2021/04/30 09:14:15;;;;;;;22.73;20.55;;;;;;;;;;5117682;28;20386;-72
2021/04/30 09:17:00;;;;;;;22.02;20.00;;;;;;;;;;5107897;28;20269;-74
2021/04/30 09:19:51;;;;;;;20.65;18.65;;;;;;;;;;5109337;28;20521;-71
2021/04/30 09:22:24;;;;;;;19.13;17.42;;;;;;;;;;5105685;28;20195;-72
2021/04/30 09:25:16;;;;;;;21.52;19.52;;;;;;;;;;5109241;28;20190;-74
2021/04/30 09:27:45;;;;;;;17.45;15.95;;;;;;;;;;5095790;28;20214;-76
2021/04/30 09:30:14;;;;;;;16.30;14.90;;;;;;;;;;5109162;28;20181;-74
2021/04/30 09:32:58;;;;;;;15.18;13.90;;;;;;;;;;5107984;28;20247;-73
2021/04/30 09:35:24;;;;;;;13.70;12.60;;;;;;;;;;5110712;28;20189;-73
2021/04/30 09:37:50;;;;;;;15.20;14.00;;;;;;;;;;5112764;28;20202;-74
2021/04/30 09:40:19;;;;;;;13.50;12.40;;;;;;;;;;5113359;28;20412;-73
2021/04/30 09:42:45;;;;;;;14.63;13.30;;;;;;;;;;5111184;28;20912;-73
2021/04/30 09:45:12;;;;;;;16.10;14.60;;;;;;;;;;5113148;28;20459;-73
2021/04/30 09:47:38;;;;;;;13.77;12.67;;;;;;;;;;5108491;28;20618;-73
2021/04/30 09:50:08;;;;;;;14.05;12.80;;;;;;;;;;5113023;28;20424;-73
2021/04/30 09:52:34;;;;;;;14.80;13.40;;;;;;;;;;5110894;28;20230;-74
2021/04/30 09:55:01;;;;;;;14.63;13.33;;;;;;;;;;5112719;27;20182;-74
2021/04/30 09:57:28;;;;;;;16.27;14.70;;;;;;;;;;5111414;28;20459;-74
2021/04/30 09:59:55;;;;;;;14.23;13.05;;;;;;;;;;5112969;28;20170;-73
2021/04/30 10:02:26;;;;;;;14.10;12.95;;;;;;;;;;5111820;28;20175;-74
2021/04/30 10:04:52;;;;;;;13.45;12.25;;;;;;;;;;5110185;27;20976;-74
2021/04/30 10:07:31;;;;;;;15.45;13.15;;;;;;;;;;5112616;28;20214;-74
2021/04/30 10:10:27;;;;;;;14.30;13.17;;;;;;;;;;5105558;28;20185;-74
2021/04/30 10:12:55;;;;;;;16.10;14.57;;;;;;;;;;5107529;27;20443;-72
2021/04/30 10:15:21;;;;;;;15.60;14.40;;;;;;;;;;5112610;28;20444;-73
2021/04/30 10:17:48;;;;;;;13.37;12.27;;;;;;;;;;5112392;28;21214;-73
2021/04/30 10:20:16;;;;;;;14.50;13.40;;;;;;;;;;5111867;28;20484;-72
2021/04/30 10:22:46;;;;;;;14.40;13.20;;;;;;;;;;5112180;28;20413;-73
2021/04/30 10:25:17;;;;;;;16.23;14.82;;;;;;;;;;5112145;28;20455;-73
2021/04/30 10:27:44;;;;;;;16.00;14.50;;;;;;;;;;5111997;28;20244;-72
2021/04/30 10:30:16;;;;;;;16.67;15.38;;;;;;;;;;5102405;28;20189;-73
2021/04/30 10:32:48;;;;;;;16.02;14.38;;;;;;;;;;5112038;28;20232;-74
2021/04/30 10:35:16;;;;;;;16.27;14.95;;;;;;;;;;5110433;28;20285;-74
2021/04/30 10:37:42;;;;;;;16.35;14.95;;;;;;;;;;5110551;28;20195;-74
2021/04/30 10:40:12;;;;;;;15.88;14.57;;;;;;;;;;5105046;28;20175;-75
2021/04/30 10:42:40;;;;;;;15.82;14.52;;;;;;;;;;5112333;28;20235;-74
2021/04/30 10:45:06;;;;;;;17.00;15.30;;;;;;;;;;5105877;28;20200;-74
2021/04/30 10:47:33;;;;;;;16.30;14.75;;;;;;;;;;5108924;28;20294;-74
2021/04/30 10:50:09;;;;;;;15.48;13.98;;;;;;;;;;5105117;28;20185;-74
2021/04/30 10:52:35;;;;;;;15.15;13.85;;;;;;;;;;5105552;28;20205;-74
2021/04/30 10:55:03;;;;;;;13.30;12.10;;;;;;;;;;5107063;28;20210;-74
2021/04/30 10:57:45;;;;;;;13.43;12.13;;;;;;;;;;5111542;28;20426;-75
2021/04/30 11:00:11;;;;;;;14.20;12.30;;;;;;;;;;5109410;28;20416;-75
2021/04/30 11:02:38;;;;;;;13.77;12.60;;;;;;;;;;5110120;28;20466;-74
2021/04/30 11:05:09;;;;;;;13.60;12.60;;;;;;;;;;5109840;28;21101;-75
2021/04/30 11:07:45;;;;;;;12.33;11.43;;;;;;;;;;5110242;28;20524;-73
2021/04/30 11:10:25;;;;;;;13.10;12.10;;;;;;;;;;5110821;28;20432;-74
2021/04/30 11:12:59;;;;;;;12.63;11.73;;;;;;;;;;5109135;28;21312;-74
2021/04/30 11:15:26;;;;;;;12.10;11.03;;;;;;;;;;5105779;28;20988;-75
2021/04/30 11:17:55;;;;;;;13.23;12.30;;;;;;;;;;5109916;28;20432;-73
2021/04/30 11:20:22;;;;;;;12.40;11.50;;;;;;;;;;5110558;28;20431;-73
2021/04/30 11:23:07;;;;;;;13.23;12.10;;;;;;;;;;5109388;28;20927;-74
2021/04/30 11:25:53;;;;;;;13.90;12.80;;;;;;;;;;5108508;28;20458;-75
2021/04/30 11:28:19;;;;;;;16.73;15.20;;;;;;;;;;5105517;28;20443;-73
2021/04/30 11:30:59;;;;;;;17.40;15.93;;;;;;;;;;5110778;28;20418;-74
2021/04/30 11:33:24;;;;;;;16.30;14.90;;;;;;;;;;5108897;27;20508;-73
2021/04/30 11:35:51;;;;;;;15.93;14.60;;;;;;;;;;5114134;27;20447;-73
2021/04/30 11:38:17;;;;;;;15.82;14.52;;;;;;;;;;5108298;27;20875;-73
2021/04/30 11:40:43;;;;;;;17.30;15.73;;;;;;;;;;5114944;27;20268;-74
2021/04/30 11:43:09;;;;;;;16.30;14.95;;;;;;;;;;5109957;28;20947;-74
2021/04/30 11:45:36;;;;;;;16.58;14.98;;;;;;;;;;5126740;27;20224;-74
2021/04/30 11:48:02;;;;;;;15.18;13.90;;;;;;;;;;5112895;27;20241;-73
2021/04/30 11:50:28;;;;;;;17.38;15.77;;;;;;;;;;5111121;27;20585;-73
2021/04/30 11:52:54;;;;;;;16.42;14.93;;;;;;;;;;5112960;27;20175;-73
2021/04/30 11:55:22;;;;;;;20.35;18.55;;;;;;;;;;5114364;27;20593;-74
2021/04/30 11:57:58;;;;;;;16.92;15.43;;;;;;;;;;5124257;27;20217;-72
2021/04/30 12:00:27;;;;;;;15.82;14.52;;;;;;;;;;5115912;27;20185;-72
2021/04/30 12:03:03;;;;;;;17.38;15.65;;;;;;;;;;5129445;27;20189;-72
2021/04/30 12:05:30;;;;;;;17.10;15.70;;;;;;;;;;5130665;27;20201;-73
2021/04/30 12:07:56;;;;;;;17.35;15.88;;;;;;;;;;5105366;27;20199;-74
2021/04/30 12:10:29;;;;;;;16.05;14.73;;;;;;;;;;5104782;27;20263;-74
2021/04/30 12:12:56;;;;;;;14.93;13.70;;;;;;;;;;5102998;27;20174;-73
2021/04/30 12:15:32;;;;;;;14.68;13.35;;;;;;;;;;5114946;27;20190;-73
2021/04/30 12:17:59;;;;;;;13.52;12.25;;;;;;;;;;5111944;27;20197;-74
2021/04/30 12:20:26;;;;;;;13.95;12.85;;;;;;;;;;5110502;28;20591;-74
2021/04/30 12:22:59;;;;;;;15.30;13.90;;;;;;;;;;5110389;28;20539;-74
2021/04/30 12:25:28;;;;;;;15.38;14.07;;;;;;;;;;5121198;27;20609;-73
2021/04/30 12:27:55;;;;;;;15.15;13.95;;;;;;;;;;5105182;27;20190;-73
2021/04/30 12:30:31;;;;;;;15.93;14.63;;;;;;;;;;5113663;27;20189;-74
2021/04/30 12:32:57;;;;;;;15.32;14.10;;;;;;;;;;5103391;27;20940;-74
2021/04/30 12:35:24;;;;;;;15.35;13.95;;;;;;;;;;5109861;27;20528;-73
2021/04/30 12:37:50;;;;;;;14.70;13.40;;;;;;;;;;5104582;28;20207;-74
2021/04/30 12:40:16;;;;;;;12.93;11.82;;;;;;;;;;5109880;28;20193;-74
2021/04/30 12:42:49;;;;;;;14.35;12.85;;;;;;;;;;5107838;28;20612;-74
2021/04/30 12:45:16;;;;;;;12.32;11.23;;;;;;;;;;5108016;28;20205;-74
2021/04/30 12:47:42;;;;;;;12.23;11.23;;;;;;;;;;5109425;28;20686;-74
2021/04/30 12:50:09;;;;;;;12.43;11.43;;;;;;;;;;5109396;28;20412;-74
2021/04/30 12:52:36;;;;;;;12.88;11.77;;;;;;;;;;5109667;28;20276;-74
2021/04/30 12:55:20;;;;;;;13.07;11.98;;;;;;;;;;5109116;28;20178;-74
2021/04/30 12:57:46;;;;;;;12.95;11.95;;;;;;;;;;5108723;28;20548;-74
2021/04/30 13:00:12;;;;;;;13.20;12.10;;;;;;;;;;5104023;28;20190;-74
2021/04/30 13:02:43;;;;;;;13.02;11.93;;;;;;;;;;5109493;28;20430;-73
2021/04/30 13:05:09;;;;;;;14.20;13.00;;;;;;;;;;5104857;28;20206;-73
2021/04/30 13:07:35;;;;;;;14.23;13.10;;;;;;;;;;5110471;28;20432;-74
2021/04/30 13:10:01;;;;;;;13.77;12.68;;;;;;;;;;5108407;28;20171;-73
2021/04/30 13:12:33;;;;;;;15.00;13.80;;;;;;;;;;5110684;28;20258;-74
2021/04/30 13:14:59;;;;;;;15.23;14.00;;;;;;;;;;5117274;27;20436;-74
2021/04/30 13:17:29;;;;;;;19.43;17.83;;;;;;;;;;5111064;28;20861;-74
2021/04/30 13:20:15;;;;;;;17.30;15.70;;;;;;;;;;5110267;28;20412;-74
2021/04/30 13:22:41;;;;;;;18.77;16.95;;;;;;;;;;5101560;28;20178;-73
2021/04/30 13:25:08;;;;;;;25.50;23.00;;;;;;;;;;5112278;28;20198;-73
2021/04/30 13:27:50;;;;;;;16.33;14.88;;;;;;;;;;5112748;28;20912;-74
2021/04/30 13:30:16;;;;;;;19.00;17.20;;;;;;;;;;5100314;28;20606;-73
2021/04/30 13:32:43;;;;;;;21.05;19.05;;;;;;;;;;5112861;28;20876;-73
2021/04/30 13:35:09;;;;;;;17.50;16.10;;;;;;;;;;5113255;28;20232;-74
2021/04/30 13:37:44;;;;;;;20.33;18.60;;;;;;;;;;5111786;28;20670;-74
2021/04/30 13:40:12;;;;;;;20.40;18.45;;;;;;;;;;5113313;28;20210;-73
2021/04/30 13:42:42;;;;;;;17.63;15.65;;;;;;;;;;5111527;28;20719;-73
2021/04/30 13:45:09;;;;;;;18.25;16.58;;;;;;;;;;5112740;28;20194;-73
2021/04/30 13:47:36;;;;;;;18.17;16.55;;;;;;;;;;5112525;28;20231;-73
2021/04/30 13:50:03;;;;;;;16.23;14.82;;;;;;;;;;5113253;28;20531;-73
2021/04/30 13:52:29;;;;;;;15.68;14.38;;;;;;;;;;5112985;28;20592;-72
2021/04/30 13:54:55;;;;;;;15.80;14.40;;;;;;;;;;5111249;28;20641;-72
2021/04/30 13:57:22;;;;;;;15.40;14.20;;;;;;;;;;5112846;28;20559;-72
2021/04/30 13:59:48;;;;;;;17.30;15.77;;;;;;;;;;5106420;27;20253;-73
2021/04/30 14:02:15;;;;;;;14.88;13.68;;;;;;;;;;5112770;28;20175;-73
2021/04/30 14:04:41;;;;;;;15.73;14.23;;;;;;;;;;5104750;28;20182;-73
2021/04/30 14:07:08;;;;;;;14.57;13.38;;;;;;;;;;5109570;28;20179;-72
2021/04/30 14:09:35;;;;;;;16.55;15.10;;;;;;;;;;5105752;28;20179;-73
2021/04/30 14:12:01;;;;;;;15.07;13.70;;;;;;;;;;5110730;28;20585;-74
2021/04/30 14:14:27;;;;;;;15.40;14.00;;;;;;;;;;5116638;27;20175;-73
2021/04/30 14:16:53;;;;;;;14.32;13.13;;;;;;;;;;5110636;28;20175;-73
2021/04/30 14:19:19;;;;;;;14.00;12.90;;;;;;;;;;5111635;28;20186;-73